Time;durP1;ratioP1;P1;durP2;ratioP2;P2;SDS_P1;SDS_P2;PMS_P1;PMS_P2;Temp;Humidity;BMP_temperature;BMP_pressure;BME280_temperature;BME280_humidity;BME280_pressure;Samples;Min_cycle;Max_cycle;Signal;HPM_P1;HPM_P2
2021/12/21 00:00:35;;;;;;;10.45;2.47;;;;;;;3.71;69.02;101329.50;4985557;28;20108;-51
2021/12/21 00:03:02;;;;;;;5.10;1.85;;;;;;;3.68;68.86;101326.81;4987260;28;20137;-48
2021/12/21 00:05:30;;;;;;;5.07;1.77;;;;;;;3.66;69.31;101328.41;4970074;28;20104;-51
2021/12/21 00:08:00;;;;;;;3.03;2.08;;;;;;;3.66;68.95;101325.84;4991256;28;20047;-50
2021/12/21 00:10:28;;;;;;;;;;;;;;;3.62;69.66;101323.97;4990752;28;20486;-50
2021/12/21 00:13:07;;;;;;;4.60;1.90;;;;;;;3.62;69.31;101317.16;4991422;28;20076;-52
2021/12/21 00:15:48;;;;;;;3.47;2.20;;;;;;;3.66;69.74;101318.16;4994289;28;20050;-53
2021/12/21 00:18:27;;;;;;;6.38;2.60;;;;;;;3.67;69.23;101319.91;4989891;28;20046;-53
2021/12/21 00:21:11;;;;;;;4.32;2.33;;;;;;;3.68;69.13;101314.88;4989974;28;20473;-53
2021/12/21 00:23:45;;;;;;;7.88;2.13;;;;;;;3.68;69.64;101314.00;4987856;28;20516;-52
2021/12/21 00:26:15;;;;;;;10.80;2.55;;;;;;;3.66;68.67;101305.34;4990892;28;20097;-51
2021/12/21 00:28:56;;;;;;;6.53;2.45;;;;;;;3.66;69.13;101306.25;4988457;28;20058;-53
2021/12/21 00:31:26;;;;;;;9.65;3.63;;;;;;;3.67;69.24;101301.97;4989553;28;20068;-53
2021/12/21 00:33:53;;;;;;;5.82;2.35;;;;;;;3.67;69.96;101297.75;4990294;28;20050;-48
2021/12/21 00:36:23;;;;;;;7.05;2.75;;;;;;;3.68;69.29;101299.50;4987856;28;20644;-52
2021/12/21 00:38:52;;;;;;;3.78;2.83;;;;;;;3.69;68.64;101287.56;4989372;28;20042;-52
2021/12/21 00:41:20;;;;;;;8.85;2.50;;;;;;;3.67;68.28;101286.59;4988036;28;20046;-49
2021/12/21 00:43:47;;;;;;;7.45;2.55;;;;;;;3.66;68.48;101279.72;4987856;28;20526;-51
2021/12/21 00:46:15;;;;;;;5.60;1.98;;;;;;;3.63;68.79;101275.34;4991558;28;20050;-50
2021/12/21 00:48:49;;;;;;;7.43;2.45;;;;;;;3.63;69.78;101274.47;4987894;28;20061;-51
2021/12/21 00:51:17;;;;;;;6.38;2.55;;;;;;;3.63;69.62;101269.34;4990273;28;20043;-50
2021/12/21 00:53:44;;;;;;;3.88;1.92;;;;;;;3.61;69.59;101269.25;4987532;28;20046;-50
2021/12/21 00:56:12;;;;;;;4.47;2.90;;;;;;;3.60;70.00;101270.09;4989754;28;20093;-52
2021/12/21 00:58:38;;;;;;;3.85;2.75;;;;;;;3.56;69.35;101274.19;4985931;28;20462;-51
2021/12/21 01:01:07;;;;;;;5.53;2.53;;;;;;;3.59;70.02;101274.31;4990265;28;20050;-48
2021/12/21 01:03:36;;;;;;;3.22;1.67;;;;;;;3.58;69.56;101266.59;4985617;28;20534;-51
2021/12/21 01:06:18;;;;;;;5.63;2.25;;;;;;;3.56;69.19;101263.94;4987451;28;20073;-49
2021/12/21 01:09:03;;;;;;;5.20;2.25;;;;;;;3.58;69.81;101258.91;4987144;28;20050;-48
2021/12/21 01:11:37;;;;;;;5.32;2.45;;;;;;;3.59;69.79;101256.38;4983714;28;20052;-52
2021/12/21 01:19:48;;;;;;;6.85;3.05;;;;;;;3.60;69.09;101252.16;4984134;28;20060;-54
2021/12/21 01:22:27;;;;;;;5.85;1.10;;;;;;;3.57;69.04;101254.56;4988635;28;21050;-48
2021/12/21 01:25:16;;;;;;;2.95;1.95;;;;;;;3.55;68.46;101256.19;4987501;28;20050;-51
2021/12/21 01:27:59;;;;;;;6.05;2.10;;;;;;;3.48;69.01;101260.16;4986946;28;20114;-53
2021/12/21 01:30:59;;;;;;;5.70;2.30;;;;;;;3.47;68.47;101258.38;4989347;28;20055;-48
2021/12/21 01:33:52;;;;;;;6.32;2.70;;;;;;;3.48;68.42;101255.03;4986873;28;20089;-54
2021/12/21 01:36:02;;;;;;;7.55;2.28;;;;;;;3.46;68.62;101251.53;4985928;28;20050;-50
2021/12/21 01:38:38;;;;;;;3.70;2.95;;;;;;;3.52;68.35;101250.91;4988411;28;20042;-54
2021/12/21 01:41:22;;;;;;;4.70;2.25;;;;;;;3.53;68.95;101253.56;4990350;28;20046;-51
2021/12/21 01:52:15;;;;;;;3.90;2.00;;;;;;;3.56;69.00;101238.34;4985692;28;20050;-50
2021/12/21 01:54:42;;;;;;;5.65;1.88;;;;;;;3.58;69.21;101240.97;4987493;28;20057;-51
2021/12/21 01:57:09;;;;;;;4.45;2.90;;;;;;;3.59;68.79;101233.31;4985683;28;20641;-50
2021/12/21 01:59:38;;;;;;;5.25;2.92;;;;;;;3.60;69.35;101227.41;4985419;28;20046;-49
2021/12/21 02:02:08;;;;;;;4.05;2.30;;;;;;;3.62;68.94;101221.47;4988933;28;20880;-50
2021/12/21 02:04:36;;;;;;;4.45;2.10;;;;;;;3.60;69.75;101229.09;4982448;28;20046;-50
2021/12/21 02:07:04;;;;;;;4.32;1.90;;;;;;;3.58;70.04;101231.56;4986930;28;20097;-47
2021/12/21 02:09:37;;;;;;;5.07;2.20;;;;;;;3.56;69.81;101228.09;4985495;28;20046;-53
2021/12/21 02:12:10;;;;;;;2.90;2.20;;;;;;;3.53;69.41;101232.19;4984464;28;20108;-52
2021/12/21 02:14:39;;;;;;;3.72;2.15;;;;;;;3.51;69.29;101229.53;4982938;28;20686;-53
2021/12/21 02:17:35;;;;;;;4.13;1.08;;;;;;;3.49;69.24;101236.28;4984214;28;20678;-49
2021/12/21 02:20:25;;;;;;;7.40;1.90;;;;;;;3.53;69.43;101238.19;4997924;28;20081;-51
2021/12/21 02:22:58;;;;;;;5.43;2.80;;;;;;;3.52;69.67;101233.00;4984795;28;20776;-51
2021/12/21 02:25:54;;;;;;;4.68;2.47;;;;;;;3.52;69.10;101236.44;4982447;28;20453;-50
2021/12/21 02:28:35;;;;;;;7.53;2.35;;;;;;;3.52;69.10;101241.56;4981215;28;20090;-53
2021/12/21 02:30:58;;;;;;;7.13;2.85;;;;;;;3.54;68.96;101228.78;4998245;28;20096;-51
2021/12/21 02:33:26;;;;;;;7.63;3.53;;;;;;;3.49;69.53;101231.16;4983891;28;20050;-52
2021/12/21 02:35:54;;;;;;;4.10;1.73;;;;;;;3.49;69.54;101236.28;4986420;28;20054;-50
2021/12/21 02:38:20;;;;;;;3.72;2.47;;;;;;;3.50;69.42;101243.16;4988113;28;20054;-52
2021/12/21 02:40:47;;;;;;;5.78;1.48;;;;;;;3.51;69.63;101229.53;4985514;28;20180;-50
2021/12/21 02:43:13;;;;;;;3.83;2.35;;;;;;;3.46;69.02;101223.34;4985130;28;20097;-49
2021/12/21 02:45:42;;;;;;;6.78;2.13;;;;;;;3.48;69.27;101229.44;4987818;28;20104;-53
2021/12/21 02:48:09;;;;;;;5.35;2.00;;;;;;;3.46;68.21;101231.03;4984754;28;20046;-54
2021/12/21 02:50:38;;;;;;;5.38;2.53;;;;;;;3.46;68.22;101228.47;4987011;28;20042;-50
2021/12/21 02:53:07;;;;;;;8.02;2.47;;;;;;;3.45;68.78;101230.13;4985874;28;20054;-48
2021/12/21 02:55:34;;;;;;;6.75;2.45;;;;;;;3.47;69.13;101232.78;4983736;28;20054;-49
2021/12/21 02:58:03;;;;;;;6.85;2.85;;;;;;;3.44;67.93;101228.41;4986411;28;20043;-50
2021/12/21 03:00:37;;;;;;;5.32;2.38;;;;;;;3.43;68.27;101218.97;4988175;28;20502;-50
2021/12/21 03:03:13;;;;;;;5.25;2.38;;;;;;;3.44;68.74;101224.94;4983777;28;20050;-51
2021/12/21 03:05:48;;;;;;;9.45;2.53;;;;;;;3.43;69.62;101226.66;4985795;28;20054;-48
2021/12/21 03:08:20;;;;;;;5.47;2.08;;;;;;;3.44;69.76;101227.50;4986004;28;20046;-52
2021/12/21 03:11:11;;;;;;;4.63;2.50;;;;;;;3.45;69.09;101224.16;4986063;28;20046;-52
2021/12/21 03:13:54;;;;;;;4.40;2.75;;;;;;;3.45;69.13;101225.00;4985932;28;20088;-53
2021/12/21 03:16:21;;;;;;;6.63;2.63;;;;;;;3.48;69.59;101229.44;4987660;28;20092;-52
2021/12/21 03:18:48;;;;;;;4.60;2.20;;;;;;;3.47;69.12;101219.97;4987951;28;20050;-51
2021/12/21 03:21:15;;;;;;;4.05;2.35;;;;;;;3.49;69.18;101223.50;4984687;28;20058;-48
2021/12/21 03:23:42;;;;;;;4.85;1.98;;;;;;;3.50;69.61;101217.56;4984379;28;20054;-51
2021/12/21 03:26:09;;;;;;;5.70;2.83;;;;;;;3.51;68.96;101219.28;4988477;28;20600;-52
2021/12/21 03:28:35;;;;;;;6.38;3.20;;;;;;;3.52;69.05;101204.81;4985015;28;20046;-51
2021/12/21 03:31:02;;;;;;;6.72;2.35;;;;;;;3.51;69.71;101209.03;4982776;28;20542;-52
2021/12/21 03:33:29;;;;;;;5.43;2.85;;;;;;;3.54;69.74;101208.31;4978256;28;20113;-52
2021/12/21 03:35:56;;;;;;;5.47;3.00;;;;;;;3.56;69.22;101206.69;4977724;28;20120;-49
2021/12/21 03:38:22;;;;;;;5.05;2.75;;;;;;;3.56;69.19;101212.72;4982442;28;20055;-49
2021/12/21 03:40:49;;;;;;;3.28;2.05;;;;;;;3.55;69.25;101205.81;4985964;28;20434;-52
2021/12/21 03:43:15;;;;;;;6.50;2.63;;;;;;;3.54;69.75;101211.75;4985785;28;20101;-53
2021/12/21 03:45:51;;;;;;;3.58;2.92;;;;;;;3.54;69.18;101209.19;4986580;28;20058;-48
2021/12/21 03:48:18;;;;;;;6.65;2.25;;;;;;;3.52;69.30;101203.13;4983760;28;20055;-51
2021/12/21 03:50:44;;;;;;;4.25;2.00;;;;;;;3.54;69.12;101204.06;4984323;28;20108;-52
2021/12/21 03:53:11;;;;;;;4.43;1.50;;;;;;;3.56;69.66;101199.03;4985374;28;20446;-51
2021/12/21 03:55:37;;;;;;;4.50;2.88;;;;;;;3.57;69.16;101199.09;4983622;28;20043;-49
2021/12/21 03:58:04;;;;;;;3.08;1.95;;;;;;;3.58;69.11;101199.97;4984367;28;20058;-51
2021/12/21 04:00:31;;;;;;;4.97;2.35;;;;;;;3.57;69.47;101193.97;4985246;28;20050;-48
2021/12/21 04:02:57;;;;;;;4.68;2.20;;;;;;;3.58;68.99;101190.59;4983799;28;20046;-52
2021/12/21 04:05:24;;;;;;;5.93;2.35;;;;;;;3.58;69.04;101187.16;4984253;28;20764;-50
2021/12/21 04:07:55;;;;;;;5.18;2.65;;;;;;;3.60;69.18;101188.09;4981664;28;20109;-51
2021/12/21 04:10:22;;;;;;;4.85;2.25;;;;;;;3.60;69.31;101183.84;4984869;28;20544;-51
2021/12/21 04:12:48;;;;;;;5.07;2.30;;;;;;;3.59;69.45;101182.09;4984322;28;20101;-51
2021/12/21 04:15:16;;;;;;;4.05;2.25;;;;;;;3.62;69.46;101183.03;4985534;28;20494;-52
2021/12/21 04:17:43;;;;;;;6.38;1.83;;;;;;;3.59;69.73;101187.22;4983020;28;20387;-52
2021/12/21 04:20:10;;;;;;;2.95;2.25;;;;;;;3.60;69.75;101183.84;4983681;28;20057;-50
2021/12/21 04:22:37;;;;;;;7.40;2.70;;;;;;;3.60;69.67;101181.28;4983972;28;20075;-50
2021/12/21 04:25:04;;;;;;;3.97;2.20;;;;;;;3.60;69.12;101183.84;4984478;28;20050;-51
2021/12/21 04:27:31;;;;;;;4.45;2.00;;;;;;;3.62;69.88;101185.59;4985400;28;20038;-52
2021/12/21 04:29:57;;;;;;;5.00;2.25;;;;;;;3.60;69.32;101181.28;4986227;28;20093;-51
2021/12/21 04:32:24;;;;;;;4.82;2.10;;;;;;;3.59;69.14;101182.09;4984452;28;20098;-50
2021/12/21 04:34:50;;;;;;;10.30;3.70;;;;;;;3.59;69.74;101176.97;4981077;28;20050;-51
2021/12/21 04:37:19;;;;;;;4.82;2.53;;;;;;;3.59;69.47;101176.09;4980144;28;20050;-51
2021/12/21 04:39:55;;;;;;;4.57;2.15;;;;;;;3.59;69.53;101178.66;4981907;28;20470;-50
2021/12/21 04:42:22;;;;;;;6.47;1.67;;;;;;;3.58;70.02;101182.03;4987133;28;20646;-51
2021/12/21 04:44:48;;;;;;;12.07;2.72;;;;;;;3.54;70.14;101173.31;4985959;28;20046;-49
2021/12/21 04:47:15;;;;;;;5.20;2.17;;;;;;;3.51;69.42;101172.31;4987117;28;20050;-50
2021/12/21 04:49:42;;;;;;;4.45;1.98;;;;;;;3.50;70.17;101181.69;4988547;28;20186;-52
2021/12/21 04:52:09;;;;;;;3.35;2.30;;;;;;;3.51;70.33;101173.19;4989261;28;20050;-52
2021/12/21 04:54:36;;;;;;;6.85;1.90;;;;;;;3.52;70.17;101177.53;4987825;28;20105;-50
2021/12/21 04:57:03;;;;;;;4.35;2.17;;;;;;;3.53;70.14;101176.72;4989042;28;20046;-52
2021/12/21 04:59:30;;;;;;;5.35;2.50;;;;;;;3.51;69.56;101178.31;4987492;28;20054;-49
2021/12/21 05:01:56;;;;;;;5.60;2.13;;;;;;;3.50;69.96;101176.56;4991474;28;20050;-50
2021/12/21 05:04:23;;;;;;;6.88;1.92;;;;;;;3.50;69.75;101165.44;4987504;28;20105;-49
2021/12/21 05:06:52;;;;;;;7.50;2.53;;;;;;;3.49;69.82;101164.56;4988025;28;20046;-52
2021/12/21 05:09:26;;;;;;;5.05;2.22;;;;;;;3.50;69.41;101160.31;4989918;28;20380;-47
2021/12/21 05:12:01;;;;;;;4.93;2.30;;;;;;;3.51;69.78;101157.81;4987510;28;20050;-50
2021/12/21 05:14:28;;;;;;;2.90;1.85;;;;;;;3.49;69.60;101154.31;4984318;28;20093;-48
2021/12/21 05:16:54;;;;;;;5.13;2.45;;;;;;;3.51;70.14;101152.69;4986704;28;20038;-55
2021/12/21 05:19:21;;;;;;;2.75;2.22;;;;;;;3.49;69.83;101145.75;4988903;28;20133;-50
2021/12/21 05:21:48;;;;;;;5.10;2.65;;;;;;;3.48;69.94;101147.47;4988655;28;20108;-48
2021/12/21 05:24:15;;;;;;;5.13;2.67;;;;;;;3.47;69.93;101140.56;4987583;28;20050;-49
2021/12/21 05:26:41;;;;;;;5.65;2.08;;;;;;;3.46;69.69;101143.94;4989620;28;20054;-53
2021/12/21 05:29:08;;;;;;;4.82;1.48;;;;;;;3.48;69.59;101139.78;4988603;28;20113;-51
2021/12/21 05:31:34;;;;;;;4.38;2.10;;;;;;;3.48;70.02;101142.34;4987583;28;20050;-50
2021/12/21 05:34:01;;;;;;;7.72;2.25;;;;;;;3.49;70.38;101141.50;4987119;28;20054;-51
2021/12/21 05:36:28;;;;;;;4.65;2.28;;;;;;;3.50;69.55;101140.69;4989736;28;20116;-49
2021/12/21 05:39:00;;;;;;;3.45;2.22;;;;;;;3.51;69.43;101147.56;4985049;28;20046;-53
2021/12/21 05:41:39;;;;;;;2.55;1.98;;;;;;;3.51;70.19;101142.44;4988398;28;20058;-51
2021/12/21 05:44:06;;;;;;;5.53;1.80;;;;;;;3.49;69.52;101144.09;4984107;28;20686;-48
2021/12/21 05:46:33;;;;;;;4.30;0.90;;;;;;;3.50;69.71;101148.38;4986337;28;20693;-54
2021/12/21 05:48:59;;;;;;;5.65;2.33;;;;;;;3.51;70.51;101149.28;4982822;28;20069;-49
2021/12/21 05:51:27;;;;;;;4.13;1.35;;;;;;;3.51;69.58;101147.56;4961661;28;21184;-46
2021/12/21 05:53:53;;;;;;;1.83;1.60;;;;;;;3.50;69.59;101150.94;4981848;28;20042;-49
2021/12/21 05:56:20;;;;;;;5.13;1.88;;;;;;;3.48;69.46;101152.59;4988036;28;20776;-49
2021/12/21 05:58:47;;;;;;;6.93;1.38;;;;;;;3.47;70.00;101155.94;4987963;28;20046;-50
2021/12/21 06:01:14;;;;;;;4.95;1.60;;;;;;;3.47;70.19;101153.38;4983976;28;20057;-52
2021/12/21 06:03:40;;;;;;;2.67;1.60;;;;;;;3.48;70.04;101162.81;4988176;28;20046;-50
2021/12/21 06:06:12;;;;;;;3.90;1.67;;;;;;;3.48;69.50;101160.25;4986811;28;20061;-52
2021/12/21 06:08:41;;;;;;;2.40;1.52;;;;;;;3.49;69.96;101159.44;4985117;28;20100;-52
2021/12/21 06:11:10;;;;;;;2.28;1.90;;;;;;;3.46;69.71;101159.31;4987244;28;20085;-48
2021/12/21 06:25:23;;;;;;;4.30;1.80;;;;;;;3.43;69.03;101159.16;4988896;28;20054;-52
2021/12/21 06:27:36;;;;;;;2.80;1.83;;;;;;;3.40;69.58;101159.91;4985292;28;20054;-51
2021/12/21 06:30:04;;;;;;;4.30;1.30;;;;;;;3.42;70.01;101159.97;4990721;28;20153;-50
2021/12/21 06:32:34;;;;;;;2.67;1.70;;;;;;;3.39;69.80;101154.72;4986444;28;20120;-49
2021/12/21 06:35:01;;;;;;;3.55;1.52;;;;;;;3.41;70.42;101160.81;4985605;28;20105;-53
2021/12/21 06:37:28;;;;;;;4.15;2.13;;;;;;;3.42;69.77;101157.41;4989172;28;20050;-51
2021/12/21 06:39:54;;;;;;;3.60;1.90;;;;;;;3.42;70.28;101158.31;4985242;28;20596;-52
2021/12/21 06:42:22;;;;;;;4.47;2.45;;;;;;;3.42;69.98;101157.41;4988056;28;20054;-53
2021/12/21 06:44:54;;;;;;;2.67;1.88;;;;;;;3.41;69.76;101158.22;4985479;28;20104;-49
2021/12/21 06:52:56;;;;;;;4.45;1.55;;;;;;;3.42;70.62;101158.31;4985762;28;20050;-53
2021/12/21 06:55:22;;;;;;;4.18;2.10;;;;;;;3.41;70.73;101158.22;4984414;28;20046;-47
2021/12/21 06:57:49;;;;;;;2.28;1.65;;;;;;;3.40;69.82;101154.78;4981430;28;20097;-48
2021/12/21 07:00:16;;;;;;;3.03;0.85;;;;;;;3.41;69.81;101150.56;4978553;28;20458;-52
2021/12/21 07:02:43;;;;;;;5.53;2.05;;;;;;;3.39;70.36;101142.78;4977643;28;20112;-51
2021/12/21 07:05:11;;;;;;;3.35;1.85;;;;;;;3.42;69.91;101152.28;4985018;28;20049;-51
2021/12/21 07:07:38;;;;;;;2.05;1.70;;;;;;;3.42;69.72;101152.28;4982117;28;20077;-49
2021/12/21 07:10:08;;;;;;;4.07;2.33;;;;;;;3.37;70.46;101148.66;4979629;28;20058;-53
2021/12/21 07:18:26;;;;;;;5.43;2.13;;;;;;;3.33;70.85;101138.28;4979274;28;20125;-52
2021/12/21 07:20:52;;;;;;;3.38;2.10;;;;;;;3.33;69.63;101138.28;4978562;28;20115;-49
2021/12/21 07:23:19;;;;;;;5.18;1.77;;;;;;;3.34;70.81;101142.59;4981126;28;20096;-52
2021/12/21 07:25:47;;;;;;;4.75;1.80;;;;;;;3.33;70.58;101138.28;4980801;28;20058;-50
2021/12/21 07:28:14;;;;;;;4.38;1.65;;;;;;;3.33;70.44;101143.41;4982616;28;20055;-54
2021/12/21 07:30:40;;;;;;;3.55;1.85;;;;;;;3.35;70.00;101140.91;4977754;28;20054;-50
2021/12/21 07:33:08;;;;;;;3.78;2.05;;;;;;;3.33;70.34;101138.28;4978312;28;21535;-51
2021/12/21 07:35:35;;;;;;;5.72;2.60;;;;;;;3.31;70.31;101145.00;4979740;28;20144;-48
2021/12/21 07:38:02;;;;;;;3.65;2.17;;;;;;;3.32;69.54;101140.75;4978719;28;20050;-50
2021/12/21 07:40:28;;;;;;;5.07;2.08;;;;;;;3.28;69.77;101144.84;4980028;28;20050;-50
2021/12/21 07:42:55;;;;;;;2.88;2.55;;;;;;;3.29;70.06;101145.75;4980397;28;20101;-50
2021/12/21 07:45:21;;;;;;;3.63;1.83;;;;;;;3.27;70.29;101145.66;4977083;28;20112;-52
2021/12/21 07:47:48;;;;;;;3.60;2.15;;;;;;;3.26;70.12;101145.59;4980217;28;20789;-48
2021/12/21 07:50:15;;;;;;;4.00;1.92;;;;;;;3.24;69.95;101148.09;4982892;28;20070;-51
2021/12/21 07:52:42;;;;;;;6.57;2.28;;;;;;;3.25;69.82;101139.63;4977128;28;20541;-52
2021/12/21 07:55:09;;;;;;;3.45;1.45;;;;;;;3.27;69.54;101147.38;4979979;28;20054;-51
2021/12/21 07:57:37;;;;;;;6.93;1.85;;;;;;;3.27;69.98;101147.38;4979576;28;20093;-50
2021/12/21 08:00:06;;;;;;;2.25;1.58;;;;;;;3.27;69.62;101153.34;4981501;28;21567;-48
2021/12/21 08:02:33;;;;;;;6.35;2.13;;;;;;;3.28;69.25;101149.97;4978620;28;20604;-49
2021/12/21 08:05:04;;;;;;;4.15;1.38;;;;;;;3.28;69.22;101149.97;4980976;28;20108;-48
2021/12/21 08:07:35;;;;;;;6.07;1.98;;;;;;;3.28;68.96;101149.97;4985960;28;20628;-54
2021/12/21 08:10:17;;;;;;;5.05;1.83;;;;;;;3.29;70.15;101146.63;4982516;28;20096;-49
2021/12/21 08:12:44;;;;;;;4.53;1.67;;;;;;;3.29;70.09;101148.31;4979261;28;20046;-50
2021/12/21 08:15:11;;;;;;;6.30;2.28;;;;;;;3.30;69.38;101150.06;4975170;28;20077;-55
2021/12/21 08:17:38;;;;;;;7.93;2.22;;;;;;;3.32;69.42;101151.88;4984957;28;20120;-53
2021/12/21 08:20:05;;;;;;;9.32;2.20;;;;;;;3.32;69.39;101151.88;4980698;28;20501;-51
2021/12/21 08:22:31;;;;;;;3.50;2.00;;;;;;;3.34;70.30;101154.50;4982749;28;20055;-50
2021/12/21 08:24:58;;;;;;;6.13;1.85;;;;;;;3.31;69.46;101159.50;4983799;28;20043;-50
2021/12/21 08:27:25;;;;;;;5.68;1.70;;;;;;;3.27;70.42;101167.88;4984433;28;20054;-52
2021/12/21 08:29:51;;;;;;;2.20;1.73;;;;;;;3.24;71.16;101163.44;4986420;28;20054;-53
2021/12/21 08:32:18;;;;;;;5.13;2.28;;;;;;;3.25;69.66;101164.34;4984055;28;20193;-50
2021/12/21 08:34:45;;;;;;;5.07;2.17;;;;;;;3.24;69.34;101163.44;4985489;28;20042;-49
2021/12/21 08:37:12;;;;;;;3.55;1.20;;;;;;;3.24;70.17;101168.56;4981430;28;20956;-49
2021/12/21 08:39:40;;;;;;;5.47;1.98;;;;;;;3.25;70.16;101175.47;4989678;28;20140;-51
2021/12/21 08:42:12;;;;;;;6.43;1.77;;;;;;;3.28;70.55;101169.59;4981974;28;20059;-50
2021/12/21 08:44:40;;;;;;;5.13;1.55;;;;;;;3.28;69.61;101175.59;4986075;28;20379;-53
2021/12/21 08:47:07;;;;;;;6.50;1.83;;;;;;;3.30;69.42;101174.00;4981891;28;20729;-50
2021/12/21 08:49:33;;;;;;;5.18;1.95;;;;;;;3.33;70.23;101176.69;4983754;28;20133;-48
2021/12/21 08:52:00;;;;;;;2.42;1.95;;;;;;;3.34;69.72;101175.00;4983450;28;20683;-51
2021/12/21 08:54:27;;;;;;;3.90;1.60;;;;;;;3.36;69.48;101173.38;4980790;28;20132;-50
2021/12/21 08:56:53;;;;;;;6.68;2.15;;;;;;;3.37;70.00;101175.13;4982767;28;20104;-49
2021/12/21 08:59:20;;;;;;;2.85;2.15;;;;;;;3.38;70.25;101166.63;4979744;28;20141;-50
2021/12/21 09:01:47;;;;;;;4.15;2.33;;;;;;;3.41;70.40;101165.91;4982026;28;20134;-49
2021/12/21 09:04:15;;;;;;;3.42;2.13;;;;;;;3.45;70.32;101162.69;4978702;28;20718;-52
2021/12/21 09:06:42;;;;;;;6.55;2.22;;;;;;;3.48;69.94;101162.81;4981051;28;20047;-47
2021/12/21 09:09:12;;;;;;;4.15;2.40;;;;;;;3.50;69.74;101171.44;4977976;28;21214;-54
2021/12/21 09:11:38;;;;;;;6.78;1.75;;;;;;;3.51;69.48;101162.09;4981505;28;20077;-52
2021/12/21 09:14:05;;;;;;;7.43;2.17;;;;;;;3.53;69.58;101161.34;4983972;28;20109;-51
2021/12/21 09:16:33;;;;;;;4.20;2.65;;;;;;;3.52;70.17;101164.72;4981827;28;20058;-51
2021/12/21 09:19:01;;;;;;;2.78;1.33;;;;;;;3.54;69.64;101162.19;4985808;28;20513;-49
2021/12/21 09:21:29;;;;;;;5.00;2.25;;;;;;;3.56;70.30;101166.59;4985709;28;20050;-52
2021/12/21 09:23:56;;;;;;;5.45;2.38;;;;;;;3.58;69.33;101154.72;4982348;28;20039;-49
2021/12/21 09:26:23;;;;;;;3.75;2.35;;;;;;;3.63;69.61;101171.97;4984514;28;20063;-51
2021/12/21 09:28:49;;;;;;;8.98;2.30;;;;;;;3.65;69.33;101168.66;4987758;28;20042;-51
2021/12/21 09:31:17;;;;;;;4.65;1.65;;;;;;;3.69;69.42;101164.56;4988703;28;21113;-52
2021/12/21 09:33:44;;;;;;;6.07;2.17;;;;;;;3.71;69.52;101155.25;4982299;28;20054;-47
2021/12/21 09:36:11;;;;;;;4.57;2.05;;;;;;;3.76;70.08;101164.03;4982735;28;20066;-54
2021/12/21 09:38:38;;;;;;;6.20;2.83;;;;;;;3.79;69.85;101159.03;4980967;28;20050;-51
2021/12/21 09:41:05;;;;;;;3.70;2.13;;;;;;;3.82;69.73;101154.03;4980906;28;20101;-53
2021/12/21 09:43:32;;;;;;;4.20;2.20;;;;;;;3.86;69.68;101155.91;4975718;28;20046;-48
2021/12/21 09:45:59;;;;;;;5.40;2.38;;;;;;;3.90;69.51;101156.94;4979441;28;20195;-47
2021/12/21 09:48:28;;;;;;;8.60;2.45;;;;;;;3.94;69.75;101147.66;4979448;28;20104;-50
2021/12/21 09:50:55;;;;;;;5.07;2.03;;;;;;;3.99;69.98;101156.44;4982300;28;20368;-48
2021/12/21 09:53:23;;;;;;;5.20;2.47;;;;;;;4.03;69.95;101162.56;4981281;28;20466;-52
2021/12/21 09:55:50;;;;;;;5.10;2.97;;;;;;;4.06;69.80;101166.13;4984450;28;20479;-52
2021/12/21 09:58:16;;;;;;;6.13;2.85;;;;;;;4.11;70.26;101167.22;4981792;28;20137;-49
2021/12/21 10:00:44;;;;;;;5.78;2.03;;;;;;;4.15;70.13;101173.34;4984556;28;20100;-51
2021/12/21 10:03:11;;;;;;;7.50;2.25;;;;;;;4.19;69.87;101174.34;4979860;28;20363;-48
2021/12/21 10:05:41;;;;;;;8.57;2.40;;;;;;;4.18;69.28;101182.84;4982510;28;20104;-48
2021/12/21 10:08:10;;;;;;;3.28;2.13;;;;;;;4.19;69.45;101175.22;4978626;28;20054;-53
2021/12/21 10:10:40;;;;;;;2.78;2.10;;;;;;;4.23;69.53;101178.78;4981898;28;20058;-51
2021/12/21 10:13:17;;;;;;;4.47;1.85;;;;;;;4.25;69.34;101182.28;4979468;28;20828;-51
2021/12/21 10:15:47;;;;;;;5.55;2.78;;;;;;;4.28;69.47;101184.97;4982953;28;20146;-50
2021/12/21 10:18:24;;;;;;;3.92;1.95;;;;;;;4.31;69.33;101182.56;4986760;28;20054;-51
2021/12/21 10:20:53;;;;;;;7.63;2.50;;;;;;;4.36;69.45;101183.59;4989212;28;20518;-50
2021/12/21 10:23:24;;;;;;;12.07;2.97;;;;;;;4.38;69.02;101186.22;4985749;28;20054;-51
2021/12/21 10:25:56;;;;;;;5.05;2.45;;;;;;;4.40;69.47;101184.63;4983682;28;20474;-51
2021/12/21 10:28:29;;;;;;;6.30;2.15;;;;;;;4.46;69.25;101184.00;4986927;28;20502;-49
2021/12/21 10:30:58;;;;;;;8.63;1.88;;;;;;;4.51;69.49;101177.34;4986174;28;20383;-51
2021/12/21 10:33:26;;;;;;;4.25;2.42;;;;;;;4.56;69.19;101173.28;4986872;28;20537;-52
2021/12/21 10:35:56;;;;;;;6.75;2.30;;;;;;;4.59;68.96;101165.69;4983338;28;20046;-48
2021/12/21 10:38:30;;;;;;;5.60;2.83;;;;;;;4.61;68.76;101170.91;4982091;28;20108;-50
2021/12/21 10:41:05;;;;;;;8.90;3.35;;;;;;;4.63;69.42;101170.13;4981273;28;20097;-48
2021/12/21 10:43:31;;;;;;;7.32;3.00;;;;;;;4.65;68.81;101159.94;4979663;28;20050;-52
2021/12/21 10:45:58;;;;;;;5.97;2.78;;;;;;;4.65;67.97;101165.06;4984317;28;20050;-50
2021/12/21 10:48:25;;;;;;;5.80;2.45;;;;;;;4.66;68.48;101156.56;4985240;28;20057;-50
2021/12/21 10:50:52;;;;;;;5.60;2.05;;;;;;;4.71;68.42;101159.31;4979370;28;20093;-51
2021/12/21 10:53:25;;;;;;;11.07;2.67;;;;;;;4.75;68.62;101159.50;4978885;28;20482;-52
2021/12/21 10:56:09;;;;;;;7.63;1.98;;;;;;;4.79;68.20;101154.50;4982094;28;20368;-54
2021/12/21 10:58:40;;;;;;;7.45;2.72;;;;;;;4.86;68.94;101153.88;4980973;28;20050;-51
2021/12/21 11:01:10;;;;;;;7.22;3.03;;;;;;;4.89;68.48;101154.91;4979762;28;20043;-51
2021/12/21 11:03:48;;;;;;;5.05;2.17;;;;;;;4.94;68.94;101152.50;4978273;28;20045;-53
2021/12/21 11:06:20;;;;;;;7.25;2.97;;;;;;;5.01;69.32;101143.34;4984114;28;20146;-52
2021/12/21 11:08:49;;;;;;;6.05;2.78;;;;;;;5.07;68.25;101138.41;4982551;28;20045;-52
2021/12/21 11:11:29;;;;;;;5.07;2.45;;;;;;;5.08;67.44;101129.91;4984067;28;20111;-54
2021/12/21 11:14:14;;;;;;;8.40;2.10;;;;;;;5.03;67.20;101136.56;4980856;28;20069;-50
2021/12/21 11:16:44;;;;;;;6.70;2.40;;;;;;;5.04;67.10;101133.19;4982920;28;20089;-48
2021/12/21 11:19:13;;;;;;;5.47;2.30;;;;;;;5.09;67.55;101123.97;4984431;28;20062;-51
2021/12/21 11:21:41;;;;;;;4.93;2.33;;;;;;;5.13;67.74;101123.25;4980219;28;20190;-49
2021/12/21 11:24:12;;;;;;;6.68;2.15;;;;;;;5.20;68.43;101114.06;4982757;28;20054;-50
2021/12/21 11:26:41;;;;;;;6.65;2.13;;;;;;;5.29;68.57;101113.53;4978314;28;20105;-54
2021/12/21 11:29:13;;;;;;;5.97;3.53;;;;;;;5.33;68.23;101110.25;4984434;28;20072;-51
2021/12/21 11:31:43;;;;;;;6.13;3.30;;;;;;;5.36;67.45;101112.94;4982723;28;20042;-51
2021/12/21 11:34:15;;;;;;;5.07;2.53;;;;;;;5.38;68.36;101113.84;4979080;28;20054;-50
2021/12/21 11:39:33;;;;;;;5.07;2.88;;;;;;;5.49;68.31;101113.38;4982307;28;20105;-50
2021/12/21 11:42:02;;;;;;;5.88;2.47;;;;;;;5.52;68.38;101116.94;4981110;28;20093;-52
2021/12/21 11:44:47;;;;;;;6.40;2.22;;;;;;;5.53;66.80;101117.78;4978922;28;20042;-50
2021/12/21 11:47:18;;;;;;;4.72;1.30;;;;;;;5.54;67.33;101119.53;4984047;28;20646;-53
2021/12/21 11:49:54;;;;;;;6.55;2.45;;;;;;;5.54;66.84;101114.41;4984181;28;20050;-52
2021/12/21 11:52:24;;;;;;;7.60;2.67;;;;;;;5.57;66.82;101116.22;4970233;28;20057;-49
2021/12/21 11:54:56;;;;;;;7.85;1.45;;;;;;;5.57;67.65;101118.78;4984727;28;20169;-55
2021/12/21 11:57:37;;;;;;;5.53;2.53;;;;;;;5.56;66.17;101112.78;4982518;28;20050;-52
2021/12/21 12:00:16;;;;;;;5.65;2.25;;;;;;;5.59;66.82;101101.72;4986724;28;20073;-53
2021/12/21 12:02:45;;;;;;;5.57;1.98;;;;;;;5.58;67.39;101106.00;4985086;28;20121;-54
2021/12/21 12:05:17;;;;;;;8.02;2.20;;;;;;;5.60;67.21;101104.34;4989619;28;20051;-49
2021/12/21 12:07:44;;;;;;;5.00;2.13;;;;;;;5.61;66.75;101100.94;4987933;28;20068;-52
2021/12/21 12:10:14;;;;;;;5.93;2.22;;;;;;;5.59;66.43;101097.47;4984576;28;20047;-50
2021/12/21 12:12:41;;;;;;;5.32;2.30;;;;;;;5.58;67.18;101103.44;4983501;28;20120;-50
2021/12/21 12:15:10;;;;;;;9.15;3.95;;;;;;;5.56;66.39;101097.34;4988705;28;20190;-49
2021/12/21 12:17:47;;;;;;;5.53;2.17;;;;;;;5.44;66.40;101097.78;4987483;28;20043;-51
2021/12/21 12:20:14;;;;;;;6.93;2.85;;;;;;;5.45;65.80;101094.41;4983589;28;20162;-50
2021/12/21 12:22:44;;;;;;;8.32;2.58;;;;;;;5.46;66.84;101092.69;4990393;28;20062;-52
2021/12/21 12:25:24;;;;;;;6.10;2.70;;;;;;;5.42;65.72;101090.84;4991162;28;20046;-50